createdAt,value
2023-05-14T00:01:47.962Z,51.30
2023-05-14T00:04:15.733Z,51.40
2023-05-14T00:06:43.988Z,51.50
2023-05-14T00:09:11.679Z,51.60
2023-05-14T00:11:39.992Z,51.60
2023-05-14T00:14:07.725Z,51.60
2023-05-14T00:16:36.011Z,51.70
2023-05-14T00:19:04.162Z,51.70
2023-05-14T00:21:32.724Z,51.80
2023-05-14T00:24:00.538Z,51.80
2023-05-14T00:26:28.732Z,51.90
2023-05-14T00:28:56.881Z,51.90
2023-05-14T00:31:25.093Z,51.90
2023-05-14T00:33:52.906Z,52.00
2023-05-14T00:36:21.656Z,52.00
2023-05-14T00:38:49.820Z,52.20
2023-05-14T00:41:18.199Z,52.30
2023-05-14T00:43:46.742Z,52.30
2023-05-14T00:46:15.894Z,52.40
2023-05-14T00:48:44.623Z,52.40
2023-05-14T00:51:12.837Z,52.40
2023-05-14T00:53:40.710Z,52.40
2023-05-14T00:56:09.268Z,52.50
2023-05-14T00:58:36.906Z,52.60
2023-05-14T01:01:05.205Z,52.60
2023-05-14T01:03:34.839Z,52.70
2023-05-14T01:06:09.092Z,52.80
2023-05-14T01:09:07.916Z,52.80
2023-05-14T01:12:28.768Z,52.90
2023-05-14T01:14:59.635Z,53.00
2023-05-14T01:17:33.194Z,52.90
2023-05-14T01:20:02.195Z,52.80
2023-05-14T01:22:30.520Z,52.80
2023-05-14T01:24:58.275Z,52.80
2023-05-14T01:27:36.830Z,52.90
2023-05-14T01:30:08.535Z,52.90
2023-05-14T01:32:37.455Z,53.00
2023-05-14T01:35:08.038Z,53.10
2023-05-14T01:37:37.692Z,53.10
2023-05-14T01:40:07.939Z,53.10
2023-05-14T01:42:37.307Z,53.20
2023-05-14T01:45:06.316Z,53.30
2023-05-14T01:47:34.866Z,53.40
2023-05-14T01:50:02.870Z,53.50
2023-05-14T01:52:31.977Z,53.60
2023-05-14T01:55:00.379Z,53.70
2023-05-14T01:57:29.316Z,53.80
2023-05-14T01:59:57.127Z,53.90
2023-05-14T02:02:26.030Z,54.10
2023-05-14T02:04:53.881Z,54.60
2023-05-14T02:07:22.945Z,54.80
2023-05-14T02:09:50.801Z,55.00
2023-05-14T02:12:19.118Z,55.10
2023-05-14T02:14:47.157Z,55.20
2023-05-14T02:17:18.332Z,55.30
2023-05-14T02:19:46.608Z,55.30
2023-05-14T02:22:14.812Z,55.30
2023-05-14T02:24:43.678Z,55.40
2023-05-14T02:27:13.465Z,55.40
2023-05-14T02:29:41.598Z,55.40
2023-05-14T02:32:09.795Z,55.40
2023-05-14T02:34:37.610Z,55.50
2023-05-14T02:37:05.891Z,55.60
2023-05-14T02:39:33.634Z,55.60
2023-05-14T02:42:01.880Z,55.70
2023-05-14T02:44:32.121Z,55.80
2023-05-14T02:47:00.477Z,55.90
2023-05-14T02:49:28.373Z,55.90
2023-05-14T02:51:57.246Z,56.00
2023-05-14T02:54:24.966Z,56.20
2023-05-14T02:56:53.145Z,56.40
2023-05-14T02:59:20.890Z,56.40
2023-05-14T03:01:49.629Z,56.60
2023-05-14T03:04:18.133Z,56.80
2023-05-14T03:06:46.328Z,56.90
2023-05-14T03:09:14.677Z,56.90
2023-05-14T03:11:43.536Z,56.90
2023-05-14T03:14:11.307Z,56.90
2023-05-14T03:16:40.445Z,57.10
2023-05-14T03:19:10.404Z,57.30
2023-05-14T03:21:38.742Z,57.40
2023-05-14T03:24:06.639Z,57.30
2023-05-14T03:26:34.935Z,57.40
2023-05-14T03:29:03.574Z,57.40
2023-05-14T03:31:32.353Z,57.30
2023-05-14T03:34:01.137Z,57.30
2023-05-14T03:36:29.635Z,57.40
2023-05-14T03:38:57.672Z,57.40
2023-05-14T03:41:26.537Z,57.40
2023-05-14T03:43:54.480Z,57.40
2023-05-14T03:46:23.525Z,57.40
2023-05-14T03:48:51.426Z,57.40
2023-05-14T03:51:19.791Z,57.50
2023-05-14T03:53:47.631Z,57.40
2023-05-14T03:56:16.607Z,57.40
2023-05-14T03:58:44.547Z,57.40
2023-05-14T04:01:13.137Z,57.40
2023-05-14T04:03:41.082Z,57.50
2023-05-14T04:06:09.781Z,57.60
2023-05-14T04:08:37.566Z,57.90
2023-05-14T04:11:06.131Z,58.20
2023-05-14T04:13:33.994Z,58.40
2023-05-14T04:16:02.572Z,58.60
2023-05-14T04:18:31.263Z,58.70
2023-05-14T04:20:59.473Z,58.70
2023-05-14T04:23:28.438Z,58.70
2023-05-14T04:25:56.636Z,58.60
2023-05-14T04:28:24.446Z,58.30
2023-05-14T04:30:52.997Z,58.40
2023-05-14T04:33:21.528Z,58.80
2023-05-14T04:35:49.697Z,59.00
2023-05-14T04:38:17.491Z,59.10
2023-05-14T04:40:45.754Z,59.10
2023-05-14T04:43:13.585Z,59.00
2023-05-14T04:45:41.710Z,58.70
2023-05-14T04:48:09.863Z,58.60
2023-05-14T04:50:38.054Z,58.40
2023-05-14T04:53:06.719Z,58.20
2023-05-14T04:55:35.616Z,58.20
2023-05-14T04:58:03.439Z,58.00
2023-05-14T05:00:31.769Z,58.00
2023-05-14T05:02:59.544Z,57.90
2023-05-14T05:05:27.874Z,57.50
2023-05-14T05:07:57.024Z,57.10
2023-05-14T05:10:25.880Z,56.90
2023-05-14T05:12:53.809Z,56.60
2023-05-14T05:15:21.905Z,56.30
2023-05-14T05:17:49.864Z,56.00
2023-05-14T05:20:18.128Z,55.90
2023-05-14T05:22:45.811Z,55.70
2023-05-14T05:25:14.259Z,55.50
2023-05-14T05:27:42.018Z,55.30
2023-05-14T05:30:10.742Z,54.90
2023-05-14T05:32:38.627Z,54.40
2023-05-14T05:35:07.427Z,53.90
2023-05-14T05:37:36.075Z,53.20
2023-05-14T05:40:06.279Z,53.10
2023-05-14T05:42:34.066Z,52.70
2023-05-14T05:45:02.385Z,52.60
2023-05-14T05:47:30.771Z,52.10
2023-05-14T05:49:59.001Z,51.70
2023-05-14T05:52:26.882Z,50.90
2023-05-14T05:54:55.380Z,50.70
2023-05-14T05:57:26.242Z,50.30
2023-05-14T05:59:57.065Z,49.70
2023-05-14T06:02:25.674Z,48.90
2023-05-14T06:04:54.260Z,48.50
2023-05-14T06:07:22.267Z,48.80
2023-05-14T06:09:50.623Z,49.30
2023-05-14T06:12:18.349Z,48.80
2023-05-14T06:14:47.110Z,49.50
2023-05-14T06:17:14.882Z,49.40
2023-05-14T06:19:43.257Z,49.00
2023-05-14T06:22:11.297Z,48.30
2023-05-14T06:24:40.046Z,47.80
2023-05-14T06:27:08.167Z,47.00
2023-05-14T06:29:36.229Z,46.70
2023-05-14T06:32:05.088Z,47.20
2023-05-14T06:34:33.664Z,47.20
2023-05-14T06:37:03.104Z,46.40
2023-05-14T06:39:31.586Z,46.70
2023-05-14T06:41:59.571Z,46.90
2023-05-14T06:44:28.036Z,46.90
2023-05-14T06:46:56.158Z,46.80
2023-05-14T06:49:26.581Z,46.80
2023-05-14T06:51:54.613Z,47.10
2023-05-14T06:54:24.943Z,47.00
2023-05-14T06:56:53.628Z,47.20
2023-05-14T06:59:22.472Z,47.60
2023-05-14T07:01:50.792Z,47.70
2023-05-14T07:04:19.605Z,48.00
2023-05-14T07:06:47.553Z,47.90
2023-05-14T07:09:17.731Z,47.70
2023-05-14T07:11:45.353Z,47.30
2023-05-14T07:14:13.760Z,47.10
2023-05-14T07:16:43.139Z,46.80
2023-05-14T07:19:11.523Z,46.40
2023-05-14T07:21:39.689Z,46.40
2023-05-14T07:24:08.181Z,45.80
2023-05-14T07:26:36.243Z,45.50
2023-05-14T07:29:04.711Z,44.80
2023-05-14T07:31:33.051Z,44.70
2023-05-14T07:34:01.263Z,44.40
2023-05-14T07:36:29.106Z,44.10
2023-05-14T07:38:57.406Z,44.00
2023-05-14T07:41:25.166Z,44.30
2023-05-14T07:43:53.516Z,44.10
2023-05-14T07:46:21.353Z,44.10
2023-05-14T07:48:50.729Z,43.80
2023-05-14T07:51:18.615Z,43.70
2023-05-14T07:53:46.853Z,43.90
2023-05-14T07:56:15.217Z,44.10
2023-05-14T07:58:43.608Z,44.10
2023-05-14T08:01:13.205Z,44.20
2023-05-14T08:03:41.678Z,43.70
2023-05-14T08:06:09.594Z,44.00
2023-05-14T08:08:38.013Z,44.20
2023-05-14T08:11:06.175Z,44.30
2023-05-14T08:13:34.576Z,44.40
2023-05-14T08:16:02.536Z,44.30
2023-05-14T08:18:31.119Z,44.30
2023-05-14T08:20:59.002Z,44.70
2023-05-14T08:23:27.972Z,44.80
2023-05-14T08:25:55.953Z,45.00
2023-05-14T08:28:25.313Z,45.00
2023-05-14T08:30:53.237Z,45.20
2023-05-14T08:33:21.724Z,45.30
2023-05-14T08:35:53.356Z,45.40
2023-05-14T08:38:21.920Z,45.30
2023-05-14T08:41:00.235Z,45.00
2023-05-14T08:43:36.034Z,44.90
2023-05-14T08:46:06.684Z,44.60
2023-05-14T08:48:36.488Z,44.50
2023-05-14T08:51:04.901Z,44.60
2023-05-14T08:53:34.063Z,44.00
2023-05-14T08:56:07.357Z,43.50
2023-05-14T08:58:35.783Z,43.00
2023-05-14T09:01:04.307Z,42.10
2023-05-14T09:03:35.311Z,41.90
2023-05-14T09:06:04.836Z,40.90
2023-05-14T09:08:33.720Z,41.00
2023-05-14T09:11:01.450Z,40.60
2023-05-14T09:13:29.895Z,39.50
2023-05-14T09:16:00.337Z,39.30
2023-05-14T09:18:28.768Z,38.80
2023-05-14T09:20:56.792Z,37.80
2023-05-14T09:23:27.549Z,37.50
2023-05-14T09:25:55.361Z,38.30
2023-05-14T09:28:28.535Z,38.30
2023-05-14T09:30:56.623Z,37.40
2023-05-14T09:33:29.531Z,37.60
2023-05-14T09:36:01.696Z,38.60
2023-05-14T09:38:34.406Z,39.20
2023-05-14T09:41:04.841Z,39.30
2023-05-14T09:43:33.059Z,39.20
2023-05-14T09:46:01.358Z,39.20
2023-05-14T09:48:30.053Z,38.80
2023-05-14T09:50:58.004Z,38.30
2023-05-14T09:53:26.662Z,37.80
2023-05-14T09:55:54.481Z,36.70
2023-05-14T09:58:22.889Z,36.40
2023-05-14T10:00:53.672Z,36.20
2023-05-14T10:03:23.377Z,35.00
2023-05-14T10:05:52.555Z,35.10
2023-05-14T10:08:27.136Z,34.40
2023-05-14T10:10:56.227Z,33.80
2023-05-14T10:13:31.148Z,33.50
2023-05-14T10:16:14.018Z,32.30
2023-05-14T10:18:48.711Z,33.20
2023-05-14T10:21:37.061Z,32.20
2023-05-14T10:24:06.776Z,33.40
2023-05-14T10:26:39.836Z,34.60
2023-05-14T10:29:11.194Z,35.10
2023-05-14T10:31:54.205Z,34.70
2023-05-14T10:34:46.568Z,34.00
2023-05-14T10:37:26.425Z,34.00
2023-05-14T10:40:01.931Z,33.60
2023-05-14T10:42:37.944Z,33.30
2023-05-14T10:45:08.777Z,32.20
2023-05-14T10:47:37.241Z,33.00
2023-05-14T10:50:11.297Z,34.00
2023-05-14T10:52:41.325Z,34.70
2023-05-14T10:55:12.867Z,35.20
2023-05-14T10:57:43.755Z,35.60
2023-05-14T11:00:14.982Z,35.70
2023-05-14T11:02:45.202Z,35.90
2023-05-14T11:05:17.654Z,36.10
2023-05-14T11:07:48.679Z,36.30
2023-05-14T11:10:19.579Z,36.50
2023-05-14T11:12:49.358Z,36.70
2023-05-14T11:15:22.355Z,36.90
2023-05-14T11:17:51.495Z,37.00
2023-05-14T11:20:21.155Z,37.00
2023-05-14T11:22:51.987Z,37.10
2023-05-14T11:25:22.120Z,37.20
2023-05-14T11:27:51.113Z,37.40
2023-05-14T11:30:20.767Z,37.50
2023-05-14T11:32:50.877Z,37.70
2023-05-14T11:35:19.212Z,37.80
2023-05-14T11:37:53.557Z,38.00
2023-05-14T11:40:22.296Z,38.00
2023-05-14T11:42:53.774Z,38.10
2023-05-14T11:45:26.972Z,38.30
2023-05-14T11:47:57.636Z,38.50
2023-05-14T11:50:27.066Z,38.60
2023-05-14T11:52:58.586Z,38.70
2023-05-14T11:55:27.260Z,38.80
2023-05-14T11:57:55.396Z,38.80
2023-05-14T12:00:25.022Z,39.10
2023-05-14T12:02:53.453Z,39.20
2023-05-14T12:05:22.734Z,39.30
2023-05-14T12:07:50.794Z,39.30
2023-05-14T12:10:18.962Z,39.30
2023-05-14T12:12:48.482Z,39.40
2023-05-14T12:15:17.648Z,39.40
2023-05-14T12:17:52.235Z,39.50
2023-05-14T12:20:20.666Z,39.50
2023-05-14T12:22:48.562Z,39.50
2023-05-14T12:25:17.321Z,39.60
2023-05-14T12:27:45.849Z,39.60
2023-05-14T12:32:46.357Z,39.80
2023-05-14T12:35:15.866Z,40.00
2023-05-14T12:37:43.981Z,40.10
2023-05-14T12:40:12.645Z,40.10
2023-05-14T12:42:40.584Z,40.10
2023-05-14T12:45:09.302Z,40.00
2023-05-14T12:47:37.738Z,40.00
2023-05-14T12:50:06.750Z,40.00
2023-05-14T12:52:39.329Z,39.80
2023-05-14T12:55:09.748Z,39.70
2023-05-14T12:57:39.614Z,39.70
2023-05-14T13:00:14.107Z,39.70
2023-05-14T13:02:43.676Z,39.70
2023-05-14T13:05:13.103Z,39.70
2023-05-14T13:07:41.428Z,39.70
2023-05-14T13:10:10.494Z,39.70
2023-05-14T13:12:38.994Z,39.70
2023-05-14T13:15:08.176Z,39.70
2023-05-14T13:17:36.957Z,39.80
2023-05-14T13:20:05.707Z,39.80
2023-05-14T13:22:34.564Z,39.80
2023-05-14T13:25:03.530Z,39.80
2023-05-14T13:27:31.475Z,40.00
2023-05-14T13:30:00.592Z,40.00
2023-05-14T13:32:28.460Z,40.00
2023-05-14T13:34:56.791Z,40.00
2023-05-14T13:37:26.007Z,40.00
2023-05-14T13:39:54.347Z,40.00
2023-05-14T13:42:24.065Z,40.00
2023-05-14T13:44:52.261Z,40.00
2023-05-14T13:47:20.206Z,40.00
2023-05-14T13:49:48.470Z,40.10
2023-05-14T13:52:16.642Z,40.10
2023-05-14T13:54:45.282Z,40.10
2023-05-14T13:57:12.997Z,40.10
2023-05-14T13:59:41.612Z,40.00
2023-05-14T14:02:09.733Z,39.90
2023-05-14T14:04:38.105Z,39.80
2023-05-14T14:07:06.036Z,39.80
2023-05-14T14:09:37.063Z,39.90
2023-05-14T14:12:06.139Z,40.00
2023-05-14T14:14:34.441Z,40.00
2023-05-14T14:17:02.280Z,40.00
2023-05-14T14:19:30.572Z,40.00
2023-05-14T14:21:58.426Z,40.00
2023-05-14T14:24:26.634Z,39.90
2023-05-14T14:26:54.502Z,39.90
2023-05-14T14:29:24.361Z,39.90
2023-05-14T14:31:52.363Z,40.00
2023-05-14T14:34:21.136Z,40.10
2023-05-14T14:36:49.052Z,40.20
2023-05-14T14:39:17.313Z,40.20
2023-05-14T14:41:45.435Z,40.20
2023-05-14T14:44:13.662Z,40.30
2023-05-14T14:46:43.265Z,40.40
2023-05-14T14:49:11.895Z,40.50
2023-05-14T14:51:39.981Z,40.50
2023-05-14T14:54:08.494Z,40.60
2023-05-14T14:56:36.348Z,40.60
2023-05-14T14:59:04.373Z,40.70
2023-05-14T15:01:32.661Z,40.60
2023-05-14T15:04:00.891Z,40.60
2023-05-14T15:06:29.698Z,40.60
2023-05-14T15:08:58.220Z,40.50
2023-05-14T15:11:26.345Z,40.50
2023-05-14T15:13:55.290Z,40.40
2023-05-14T15:16:22.864Z,40.40
2023-05-14T15:18:51.172Z,40.50
2023-05-14T15:21:19.453Z,40.60
2023-05-14T15:23:48.436Z,40.70
2023-05-14T15:26:16.368Z,40.80
2023-05-14T15:28:44.747Z,40.80
2023-05-14T15:31:12.878Z,40.90
2023-05-14T15:33:42.436Z,40.90
2023-05-14T15:36:10.406Z,40.90
2023-05-14T15:38:38.740Z,41.00
2023-05-14T15:41:06.945Z,40.90
2023-05-14T15:43:35.718Z,41.00
2023-05-14T15:46:04.011Z,41.00
2023-05-14T15:48:32.290Z,40.90
2023-05-14T15:51:03.232Z,40.90
2023-05-14T15:53:31.764Z,40.90
2023-05-14T15:55:59.564Z,40.90
2023-05-14T15:58:27.855Z,40.90
2023-05-14T16:00:56.332Z,41.00
2023-05-14T16:03:25.069Z,41.00
2023-05-14T16:05:53.226Z,41.10
2023-05-14T16:08:21.804Z,41.00
2023-05-14T16:10:50.115Z,40.90
2023-05-14T16:13:18.833Z,40.90
2023-05-14T16:15:47.181Z,40.90
2023-05-14T16:18:16.756Z,41.00
2023-05-14T16:20:45.996Z,41.10
2023-05-14T16:23:14.291Z,41.10
2023-05-14T16:25:42.104Z,41.20
2023-05-14T16:28:10.475Z,41.30
2023-05-14T16:30:39.500Z,41.30
2023-05-14T16:33:08.456Z,41.40
2023-05-14T16:35:36.485Z,41.40
2023-05-14T16:38:05.781Z,41.50
2023-05-14T16:40:33.593Z,41.60
2023-05-14T16:43:02.079Z,41.70
2023-05-14T16:45:31.857Z,41.80
2023-05-14T16:48:01.697Z,41.80
2023-05-14T16:50:30.203Z,41.80
2023-05-14T16:52:58.527Z,41.90
2023-05-14T16:55:26.911Z,41.90
2023-05-14T16:57:55.760Z,41.90
2023-05-14T17:00:23.940Z,41.90
2023-05-14T17:02:54.569Z,41.90
2023-05-14T17:05:27.352Z,42.00
2023-05-14T17:08:00.585Z,42.00
2023-05-14T17:10:28.624Z,42.10
2023-05-14T17:12:56.958Z,42.10
2023-05-14T17:15:43.008Z,42.20
2023-05-14T17:18:12.358Z,42.20
2023-05-14T17:20:42.833Z,42.20
2023-05-14T17:23:10.806Z,42.20
2023-05-14T17:25:42.051Z,42.30
2023-05-14T17:28:09.964Z,42.30
2023-05-14T17:30:38.332Z,42.30
2023-05-14T17:33:07.933Z,42.40
2023-05-14T17:35:37.644Z,42.50
2023-05-14T17:38:05.630Z,42.60
2023-05-14T17:40:34.862Z,42.80
2023-05-14T17:43:02.819Z,42.90
2023-05-14T17:45:39.295Z,43.00
2023-05-14T17:48:10.886Z,43.20
2023-05-14T17:50:40.024Z,43.50
2023-05-14T17:53:07.992Z,43.60
2023-05-14T17:55:43.963Z,43.80
2023-05-14T17:58:16.478Z,44.00
2023-05-14T18:00:45.421Z,44.20
2023-05-14T18:03:15.524Z,44.30
2023-05-14T18:05:44.559Z,44.50
2023-05-14T18:08:13.850Z,44.60
2023-05-14T18:10:42.778Z,45.20
2023-05-14T18:13:10.824Z,45.40
2023-05-14T18:15:39.588Z,45.60
2023-05-14T18:18:07.505Z,45.80
2023-05-14T18:20:37.185Z,45.90
2023-05-14T18:23:05.031Z,46.00
2023-05-14T18:25:34.481Z,46.10
2023-05-14T18:28:04.143Z,46.20
2023-05-14T18:30:34.886Z,46.10
2023-05-14T18:33:02.822Z,46.20
2023-05-14T18:35:32.019Z,46.20
2023-05-14T18:38:00.211Z,46.20
2023-05-14T18:40:31.157Z,46.30
2023-05-14T18:42:59.656Z,46.30
2023-05-14T18:45:32.475Z,46.30
2023-05-14T18:48:00.499Z,46.20
2023-05-14T18:50:31.239Z,46.40
2023-05-14T18:52:59.800Z,46.50
2023-05-14T18:55:28.825Z,46.50
2023-05-14T18:57:57.518Z,46.60
2023-05-14T19:00:26.135Z,46.60
2023-05-14T19:02:54.338Z,46.60
2023-05-14T19:05:23.117Z,46.60
2023-05-14T19:07:51.959Z,46.70
2023-05-14T19:10:24.243Z,46.80
2023-05-14T19:12:52.828Z,47.10
2023-05-14T19:15:21.971Z,47.20
2023-05-14T19:17:50.369Z,47.30
2023-05-14T19:20:20.382Z,47.30
2023-05-14T19:22:49.712Z,47.40
2023-05-14T19:25:19.566Z,47.50
2023-05-14T19:27:52.083Z,47.50
2023-05-14T19:30:23.793Z,47.50
2023-05-14T19:32:52.729Z,47.60
2023-05-14T19:35:24.156Z,47.60
2023-05-14T19:37:52.756Z,47.70
2023-05-14T19:40:22.619Z,47.70
2023-05-14T19:42:50.550Z,47.80
2023-05-14T19:45:18.810Z,47.80
2023-05-14T19:47:47.701Z,47.80
2023-05-14T19:50:19.093Z,47.80
2023-05-14T19:52:47.719Z,47.90
2023-05-14T19:55:16.140Z,48.00
2023-05-14T19:57:45.552Z,48.00
2023-05-14T20:00:15.278Z,48.20
2023-05-14T20:02:44.051Z,48.20
2023-05-14T20:05:13.738Z,48.20
2023-05-14T20:07:43.878Z,48.30
2023-05-14T20:10:13.637Z,48.30
2023-05-14T20:12:41.749Z,48.30
2023-05-14T20:15:11.587Z,48.40
2023-05-14T20:17:40.496Z,48.50
2023-05-14T20:20:10.761Z,48.50
2023-05-14T20:22:38.973Z,48.60
2023-05-14T20:25:09.365Z,48.60
2023-05-14T20:27:37.740Z,48.70
2023-05-14T20:30:07.063Z,48.80
2023-05-14T20:32:35.482Z,48.90
2023-05-14T20:35:04.012Z,48.90
2023-05-14T20:37:33.472Z,49.00
2023-05-14T20:40:06.521Z,49.10
2023-05-14T20:42:36.717Z,49.20
2023-05-14T20:45:06.566Z,49.30
2023-05-14T20:47:34.452Z,49.40
2023-05-14T20:50:02.982Z,49.50
2023-05-14T20:52:30.832Z,49.60
2023-05-14T20:55:01.537Z,49.70
2023-05-14T20:57:31.537Z,49.80
2023-05-14T20:59:59.761Z,49.90
2023-05-14T21:02:27.682Z,50.00
2023-05-14T21:04:56.028Z,50.00
2023-05-14T21:07:24.049Z,50.10
2023-05-14T21:09:52.986Z,50.20
2023-05-14T21:12:22.012Z,50.30
2023-05-14T21:14:50.723Z,50.30
2023-05-14T21:17:18.478Z,50.40
2023-05-14T21:19:48.712Z,50.50
2023-05-14T21:22:16.708Z,50.50
2023-05-14T21:24:44.885Z,50.60
2023-05-14T21:27:12.969Z,50.70
2023-05-14T21:29:41.393Z,50.70
2023-05-14T21:32:09.662Z,50.80
2023-05-14T21:34:38.252Z,50.90
2023-05-14T21:37:06.483Z,50.90
2023-05-14T21:39:35.293Z,51.00
2023-05-14T21:42:03.044Z,51.00
2023-05-14T21:44:31.367Z,51.10
2023-05-14T21:46:59.495Z,51.20
2023-05-14T21:49:28.783Z,51.40
2023-05-14T21:51:56.573Z,51.50
2023-05-14T21:54:25.255Z,51.50
2023-05-14T21:56:53.392Z,51.50
2023-05-14T21:59:21.853Z,51.70
2023-05-14T22:04:21.528Z,52.00
2023-05-14T22:06:52.073Z,52.00
2023-05-14T22:09:20.488Z,52.00
2023-05-14T22:11:49.516Z,52.00
2023-05-14T22:14:17.640Z,52.10
2023-05-14T22:16:45.773Z,52.10
2023-05-14T22:19:16.217Z,52.10
2023-05-14T22:21:44.404Z,52.10
2023-05-14T22:24:12.661Z,52.10
2023-05-14T22:26:40.396Z,52.20
2023-05-14T22:29:09.820Z,52.40
2023-05-14T22:31:37.761Z,52.50
2023-05-14T22:34:06.137Z,52.60
2023-05-14T22:36:34.221Z,52.70
2023-05-14T22:39:02.520Z,52.90
2023-05-14T22:41:31.221Z,53.10
2023-05-14T22:43:59.425Z,53.30
2023-05-14T22:46:27.919Z,53.40
2023-05-14T22:48:57.402Z,53.50
2023-05-14T22:51:25.901Z,53.70
2023-05-14T22:53:54.995Z,53.80
2023-05-14T22:56:22.954Z,53.90
2023-05-14T22:58:51.303Z,54.00
2023-05-14T23:01:19.091Z,54.00
2023-05-14T23:03:48.013Z,54.10
2023-05-14T23:06:15.851Z,54.30
2023-05-14T23:08:44.059Z,54.50
2023-05-14T23:11:11.941Z,54.60
2023-05-14T23:13:40.248Z,54.70
2023-05-14T23:16:08.340Z,54.80
2023-05-14T23:18:36.559Z,54.70
2023-05-14T23:21:04.550Z,54.80
2023-05-14T23:23:33.063Z,55.00
2023-05-14T23:26:01.127Z,55.10
2023-05-14T23:28:31.590Z,55.30
2023-05-14T23:30:59.561Z,55.30
2023-05-14T23:33:27.765Z,55.40
2023-05-14T23:35:55.945Z,55.40
2023-05-14T23:38:24.798Z,55.50
2023-05-14T23:40:52.967Z,55.50
2023-05-14T23:43:21.240Z,55.70
2023-05-14T23:45:49.218Z,55.70
2023-05-14T23:48:18.488Z,55.80
2023-05-14T23:50:46.429Z,55.80
2023-05-14T23:53:15.048Z,55.80
2023-05-14T23:55:42.860Z,55.90
2023-05-14T23:58:11.377Z,56.00
